sensor_id;sensor_type;location;lat;lon;timestamp;P1;durP1;ratioP1;P2;durP2;ratioP2
70303;SDS011;57712;48.752;11.348;2024-01-11T00:00:32;54.27;;;18.83;;
70303;SDS011;57712;48.752;11.348;2024-01-11T00:03:03;52.90;;;20.20;;
70303;SDS011;57712;48.752;11.348;2024-01-11T00:05:30;49.40;;;19.52;;
70303;SDS011;57712;48.752;11.348;2024-01-11T00:07:57;51.15;;;19.80;;
70303;SDS011;57712;48.752;11.348;2024-01-11T00:10:23;50.10;;;18.75;;
70303;SDS011;57712;48.752;11.348;2024-01-11T00:12:50;50.37;;;19.20;;
70303;SDS011;57712;48.752;11.348;2024-01-11T00:15:17;51.53;;;19.13;;
70303;SDS011;57712;48.752;11.348;2024-01-11T00:17:44;59.55;;;22.00;;
70303;SDS011;57712;48.752;11.348;2024-01-11T00:20:11;80.50;;;30.27;;
70303;SDS011;57712;48.752;11.348;2024-01-11T00:22:38;74.57;;;27.38;;
70303;SDS011;57712;48.752;11.348;2024-01-11T00:25:05;60.67;;;21.77;;
70303;SDS011;57712;48.752;11.348;2024-01-11T00:27:32;53.63;;;18.80;;
70303;SDS011;57712;48.752;11.348;2024-01-11T00:29:58;52.78;;;19.48;;
70303;SDS011;57712;48.752;11.348;2024-01-11T00:32:25;49.08;;;18.70;;
70303;SDS011;57712;48.752;11.348;2024-01-11T00:34:52;48.45;;;18.20;;
70303;SDS011;57712;48.752;11.348;2024-01-11T00:37:19;47.20;;;17.77;;
70303;SDS011;57712;48.752;11.348;2024-01-11T00:39:46;54.55;;;20.20;;
70303;SDS011;57712;48.752;11.348;2024-01-11T00:42:12;48.80;;;18.80;;
70303;SDS011;57712;48.752;11.348;2024-01-11T00:44:39;50.85;;;19.13;;
70303;SDS011;57712;48.752;11.348;2024-01-11T00:47:07;51.92;;;19.73;;
70303;SDS011;57712;48.752;11.348;2024-01-11T00:49:33;50.20;;;19.53;;
70303;SDS011;57712;48.752;11.348;2024-01-11T00:52:00;47.78;;;18.58;;
70303;SDS011;57712;48.752;11.348;2024-01-11T00:54:27;50.63;;;18.92;;
70303;SDS011;57712;48.752;11.348;2024-01-11T00:56:54;52.72;;;19.00;;
70303;SDS011;57712;48.752;11.348;2024-01-11T00:59:21;54.17;;;19.75;;
70303;SDS011;57712;48.752;11.348;2024-01-11T01:01:48;52.63;;;18.87;;
70303;SDS011;57712;48.752;11.348;2024-01-11T01:04:15;52.20;;;19.05;;
70303;SDS011;57712;48.752;11.348;2024-01-11T01:06:42;55.30;;;21.02;;
70303;SDS011;57712;48.752;11.348;2024-01-11T01:09:09;55.20;;;18.25;;
70303;SDS011;57712;48.752;11.348;2024-01-11T01:11:36;55.70;;;18.85;;
70303;SDS011;57712;48.752;11.348;2024-01-11T01:14:03;53.57;;;20.13;;
70303;SDS011;57712;48.752;11.348;2024-01-11T01:16:29;52.53;;;20.45;;
70303;SDS011;57712;48.752;11.348;2024-01-11T01:18:56;52.95;;;19.42;;
70303;SDS011;57712;48.752;11.348;2024-01-11T01:21:23;52.15;;;20.48;;
70303;SDS011;57712;48.752;11.348;2024-01-11T01:23:50;52.72;;;18.83;;
70303;SDS011;57712;48.752;11.348;2024-01-11T01:26:16;50.17;;;19.70;;
70303;SDS011;57712;48.752;11.348;2024-01-11T01:28:43;53.08;;;18.25;;
70303;SDS011;57712;48.752;11.348;2024-01-11T01:31:10;56.53;;;21.08;;
70303;SDS011;57712;48.752;11.348;2024-01-11T01:33:37;56.35;;;19.98;;
70303;SDS011;57712;48.752;11.348;2024-01-11T01:36:04;53.13;;;20.27;;
70303;SDS011;57712;48.752;11.348;2024-01-11T01:38:35;57.70;;;19.90;;
70303;SDS011;57712;48.752;11.348;2024-01-11T01:41:02;50.92;;;18.90;;
70303;SDS011;57712;48.752;11.348;2024-01-11T01:43:29;52.97;;;18.85;;
70303;SDS011;57712;48.752;11.348;2024-01-11T01:45:55;58.22;;;20.73;;
70303;SDS011;57712;48.752;11.348;2024-01-11T01:48:22;53.22;;;18.60;;
70303;SDS011;57712;48.752;11.348;2024-01-11T01:50:49;52.83;;;19.17;;
70303;SDS011;57712;48.752;11.348;2024-01-11T01:53:19;57.92;;;20.10;;
70303;SDS011;57712;48.752;11.348;2024-01-11T01:55:48;55.72;;;21.23;;
70303;SDS011;57712;48.752;11.348;2024-01-11T01:58:16;59.22;;;20.50;;
70303;SDS011;57712;48.752;11.348;2024-01-11T02:00:44;54.60;;;20.17;;
70303;SDS011;57712;48.752;11.348;2024-01-11T02:03:12;49.67;;;17.63;;
70303;SDS011;57712;48.752;11.348;2024-01-11T02:05:41;55.28;;;19.30;;
70303;SDS011;57712;48.752;11.348;2024-01-11T02:08:09;56.33;;;20.35;;
70303;SDS011;57712;48.752;11.348;2024-01-11T02:10:41;54.50;;;19.30;;
70303;SDS011;57712;48.752;11.348;2024-01-11T02:13:09;57.28;;;18.40;;
70303;SDS011;57712;48.752;11.348;2024-01-11T02:15:36;49.47;;;19.70;;
70303;SDS011;57712;48.752;11.348;2024-01-11T02:18:03;56.28;;;19.92;;
70303;SDS011;57712;48.752;11.348;2024-01-11T02:20:30;51.22;;;19.30;;
70303;SDS011;57712;48.752;11.348;2024-01-11T02:22:58;52.58;;;17.88;;
70303;SDS011;57712;48.752;11.348;2024-01-11T02:25:31;56.85;;;19.33;;
70303;SDS011;57712;48.752;11.348;2024-01-11T02:27:58;58.90;;;19.20;;
70303;SDS011;57712;48.752;11.348;2024-01-11T02:30:25;57.60;;;20.27;;
70303;SDS011;57712;48.752;11.348;2024-01-11T02:32:52;53.50;;;19.20;;
70303;SDS011;57712;48.752;11.348;2024-01-11T02:35:19;54.13;;;18.77;;
70303;SDS011;57712;48.752;11.348;2024-01-11T02:37:47;50.80;;;18.52;;
70303;SDS011;57712;48.752;11.348;2024-01-11T02:40:14;49.77;;;18.37;;
70303;SDS011;57712;48.752;11.348;2024-01-11T02:42:41;51.65;;;18.92;;
70303;SDS011;57712;48.752;11.348;2024-01-11T02:45:08;53.28;;;18.92;;
70303;SDS011;57712;48.752;11.348;2024-01-11T02:47:37;54.47;;;20.45;;
70303;SDS011;57712;48.752;11.348;2024-01-11T02:50:07;53.72;;;19.40;;
70303;SDS011;57712;48.752;11.348;2024-01-11T02:52:34;50.90;;;18.57;;
70303;SDS011;57712;48.752;11.348;2024-01-11T02:55:01;45.15;;;17.83;;
70303;SDS011;57712;48.752;11.348;2024-01-11T02:57:28;55.15;;;19.63;;
70303;SDS011;57712;48.752;11.348;2024-01-11T02:59:55;54.13;;;18.88;;
70303;SDS011;57712;48.752;11.348;2024-01-11T03:02:22;49.75;;;18.35;;
70303;SDS011;57712;48.752;11.348;2024-01-11T03:04:49;51.83;;;19.83;;
70303;SDS011;57712;48.752;11.348;2024-01-11T03:07:15;48.90;;;19.13;;
70303;SDS011;57712;48.752;11.348;2024-01-11T03:09:42;50.35;;;18.90;;
70303;SDS011;57712;48.752;11.348;2024-01-11T03:12:09;45.20;;;17.58;;
70303;SDS011;57712;48.752;11.348;2024-01-11T03:14:36;51.92;;;18.98;;
70303;SDS011;57712;48.752;11.348;2024-01-11T03:17:03;52.13;;;19.10;;
70303;SDS011;57712;48.752;11.348;2024-01-11T03:19:29;49.22;;;19.08;;
70303;SDS011;57712;48.752;11.348;2024-01-11T03:21:56;46.17;;;18.20;;
70303;SDS011;57712;48.752;11.348;2024-01-11T03:24:23;45.33;;;17.45;;
70303;SDS011;57712;48.752;11.348;2024-01-11T03:26:50;47.90;;;18.77;;
70303;SDS011;57712;48.752;11.348;2024-01-11T03:29:17;48.33;;;17.23;;
70303;SDS011;57712;48.752;11.348;2024-01-11T03:31:43;48.38;;;17.80;;
70303;SDS011;57712;48.752;11.348;2024-01-11T03:34:11;47.72;;;17.85;;
70303;SDS011;57712;48.752;11.348;2024-01-11T03:36:38;44.50;;;17.55;;
70303;SDS011;57712;48.752;11.348;2024-01-11T03:39:06;43.80;;;15.48;;
70303;SDS011;57712;48.752;11.348;2024-01-11T03:41:33;46.30;;;17.43;;
70303;SDS011;57712;48.752;11.348;2024-01-11T03:44:00;46.10;;;18.50;;
70303;SDS011;57712;48.752;11.348;2024-01-11T03:46:27;43.15;;;16.90;;
70303;SDS011;57712;48.752;11.348;2024-01-11T03:48:54;41.15;;;16.80;;
70303;SDS011;57712;48.752;11.348;2024-01-11T03:51:22;44.65;;;16.77;;
70303;SDS011;57712;48.752;11.348;2024-01-11T03:53:49;40.93;;;16.27;;
70303;SDS011;57712;48.752;11.348;2024-01-11T03:56:16;41.95;;;16.10;;
70303;SDS011;57712;48.752;11.348;2024-01-11T03:58:42;42.15;;;16.52;;
70303;SDS011;57712;48.752;11.348;2024-01-11T04:01:11;43.13;;;16.27;;
70303;SDS011;57712;48.752;11.348;2024-01-11T04:03:38;38.45;;;15.60;;
70303;SDS011;57712;48.752;11.348;2024-01-11T04:06:05;35.77;;;14.40;;
70303;SDS011;57712;48.752;11.348;2024-01-11T04:08:33;38.50;;;15.80;;
70303;SDS011;57712;48.752;11.348;2024-01-11T04:11:03;40.50;;;15.88;;
70303;SDS011;57712;48.752;11.348;2024-01-11T04:13:33;39.72;;;15.77;;
70303;SDS011;57712;48.752;11.348;2024-01-11T04:16:03;40.33;;;16.48;;
70303;SDS011;57712;48.752;11.348;2024-01-11T04:18:31;39.13;;;14.13;;
70303;SDS011;57712;48.752;11.348;2024-01-11T04:20:57;39.13;;;15.40;;
70303;SDS011;57712;48.752;11.348;2024-01-11T04:23:24;36.90;;;15.00;;
70303;SDS011;57712;48.752;11.348;2024-01-11T04:25:51;40.58;;;15.30;;
70303;SDS011;57712;48.752;11.348;2024-01-11T04:28:18;43.08;;;17.02;;
70303;SDS011;57712;48.752;11.348;2024-01-11T04:30:44;40.60;;;16.90;;
70303;SDS011;57712;48.752;11.348;2024-01-11T04:33:11;39.00;;;15.95;;
70303;SDS011;57712;48.752;11.348;2024-01-11T04:35:38;38.63;;;16.95;;
70303;SDS011;57712;48.752;11.348;2024-01-11T04:38:05;38.03;;;16.00;;
70303;SDS011;57712;48.752;11.348;2024-01-11T04:40:31;37.92;;;15.90;;
70303;SDS011;57712;48.752;11.348;2024-01-11T04:42:58;39.57;;;15.77;;
70303;SDS011;57712;48.752;11.348;2024-01-11T04:45:28;37.17;;;15.52;;
70303;SDS011;57712;48.752;11.348;2024-01-11T04:47:54;43.67;;;17.27;;
70303;SDS011;57712;48.752;11.348;2024-01-11T04:50:21;38.13;;;16.27;;
70303;SDS011;57712;48.752;11.348;2024-01-11T04:52:48;39.10;;;15.35;;
70303;SDS011;57712;48.752;11.348;2024-01-11T04:55:15;34.33;;;14.73;;
70303;SDS011;57712;48.752;11.348;2024-01-11T04:57:42;35.42;;;14.15;;
70303;SDS011;57712;48.752;11.348;2024-01-11T05:00:09;36.97;;;15.95;;
70303;SDS011;57712;48.752;11.348;2024-01-11T05:02:36;33.53;;;15.32;;
70303;SDS011;57712;48.752;11.348;2024-01-11T05:05:03;32.90;;;14.38;;
70303;SDS011;57712;48.752;11.348;2024-01-11T05:07:31;37.53;;;14.30;;
70303;SDS011;57712;48.752;11.348;2024-01-11T05:09:58;38.60;;;16.27;;
70303;SDS011;57712;48.752;11.348;2024-01-11T05:12:25;39.63;;;17.17;;
70303;SDS011;57712;48.752;11.348;2024-01-11T05:14:51;36.17;;;15.15;;
70303;SDS011;57712;48.752;11.348;2024-01-11T05:17:18;40.55;;;15.98;;
70303;SDS011;57712;48.752;11.348;2024-01-11T05:19:45;39.80;;;15.83;;
70303;SDS011;57712;48.752;11.348;2024-01-11T05:22:11;38.50;;;15.75;;
70303;SDS011;57712;48.752;11.348;2024-01-11T05:24:38;36.95;;;14.93;;
70303;SDS011;57712;48.752;11.348;2024-01-11T05:27:05;37.60;;;14.93;;
70303;SDS011;57712;48.752;11.348;2024-01-11T05:29:31;40.60;;;16.20;;
70303;SDS011;57712;48.752;11.348;2024-01-11T05:31:58;39.90;;;16.53;;
70303;SDS011;57712;48.752;11.348;2024-01-11T05:34:25;41.35;;;16.60;;
70303;SDS011;57712;48.752;11.348;2024-01-11T05:36:52;36.00;;;15.32;;
70303;SDS011;57712;48.752;11.348;2024-01-11T05:39:19;34.00;;;13.85;;
70303;SDS011;57712;48.752;11.348;2024-01-11T05:41:46;40.05;;;15.13;;
70303;SDS011;57712;48.752;11.348;2024-01-11T05:44:16;36.70;;;15.63;;
70303;SDS011;57712;48.752;11.348;2024-01-11T05:46:43;43.20;;;15.57;;
70303;SDS011;57712;48.752;11.348;2024-01-11T05:49:10;41.83;;;16.27;;
70303;SDS011;57712;48.752;11.348;2024-01-11T05:51:37;36.13;;;15.10;;
70303;SDS011;57712;48.752;11.348;2024-01-11T05:54:04;41.72;;;16.15;;
70303;SDS011;57712;48.752;11.348;2024-01-11T05:56:31;37.30;;;15.03;;
70303;SDS011;57712;48.752;11.348;2024-01-11T05:58:59;43.53;;;17.40;;
70303;SDS011;57712;48.752;11.348;2024-01-11T06:01:26;41.78;;;17.70;;
70303;SDS011;57712;48.752;11.348;2024-01-11T06:03:53;41.35;;;16.50;;
70303;SDS011;57712;48.752;11.348;2024-01-11T06:06:20;45.10;;;16.02;;
70303;SDS011;57712;48.752;11.348;2024-01-11T06:08:47;39.90;;;16.17;;
70303;SDS011;57712;48.752;11.348;2024-01-11T06:11:15;41.17;;;15.80;;
70303;SDS011;57712;48.752;11.348;2024-01-11T06:13:41;40.15;;;16.63;;
70303;SDS011;57712;48.752;11.348;2024-01-11T06:16:11;34.05;;;15.30;;
70303;SDS011;57712;48.752;11.348;2024-01-11T06:18:39;39.78;;;14.93;;
70303;SDS011;57712;48.752;11.348;2024-01-11T06:21:05;39.40;;;15.23;;
70303;SDS011;57712;48.752;11.348;2024-01-11T06:23:32;39.08;;;14.93;;
70303;SDS011;57712;48.752;11.348;2024-01-11T06:25:59;37.15;;;15.18;;
70303;SDS011;57712;48.752;11.348;2024-01-11T06:28:26;38.63;;;15.20;;
70303;SDS011;57712;48.752;11.348;2024-01-11T06:30:53;41.85;;;15.70;;
70303;SDS011;57712;48.752;11.348;2024-01-11T06:33:20;33.47;;;14.07;;
70303;SDS011;57712;48.752;11.348;2024-01-11T06:35:47;39.70;;;14.77;;
70303;SDS011;57712;48.752;11.348;2024-01-11T06:38:14;42.28;;;16.48;;
70303;SDS011;57712;48.752;11.348;2024-01-11T06:40:41;37.50;;;13.98;;
70303;SDS011;57712;48.752;11.348;2024-01-11T06:43:07;41.10;;;14.55;;
70303;SDS011;57712;48.752;11.348;2024-01-11T06:45:34;38.20;;;14.63;;
70303;SDS011;57712;48.752;11.348;2024-01-11T06:48:01;67.78;;;26.25;;
70303;SDS011;57712;48.752;11.348;2024-01-11T06:50:28;52.53;;;22.52;;
70303;SDS011;57712;48.752;11.348;2024-01-11T06:52:55;48.30;;;19.10;;
70303;SDS011;57712;48.752;11.348;2024-01-11T06:55:22;48.30;;;18.70;;
70303;SDS011;57712;48.752;11.348;2024-01-11T06:57:49;43.80;;;18.70;;
70303;SDS011;57712;48.752;11.348;2024-01-11T07:00:16;44.65;;;19.23;;
70303;SDS011;57712;48.752;11.348;2024-01-11T07:02:42;39.92;;;17.05;;
70303;SDS011;57712;48.752;11.348;2024-01-11T07:05:09;40.22;;;17.05;;
70303;SDS011;57712;48.752;11.348;2024-01-11T07:07:36;35.38;;;16.35;;
70303;SDS011;57712;48.752;11.348;2024-01-11T07:10:03;37.70;;;15.97;;
70303;SDS011;57712;48.752;11.348;2024-01-11T07:12:32;37.38;;;14.90;;
70303;SDS011;57712;48.752;11.348;2024-01-11T07:14:59;37.30;;;16.85;;
70303;SDS011;57712;48.752;11.348;2024-01-11T07:17:26;40.17;;;15.75;;
70303;SDS011;57712;48.752;11.348;2024-01-11T07:19:53;38.50;;;16.23;;
70303;SDS011;57712;48.752;11.348;2024-01-11T07:22:20;41.10;;;15.83;;
70303;SDS011;57712;48.752;11.348;2024-01-11T07:24:46;36.10;;;15.77;;
70303;SDS011;57712;48.752;11.348;2024-01-11T07:27:13;40.40;;;14.85;;
70303;SDS011;57712;48.752;11.348;2024-01-11T07:29:40;44.55;;;17.20;;
70303;SDS011;57712;48.752;11.348;2024-01-11T07:32:07;43.95;;;16.05;;
70303;SDS011;57712;48.752;11.348;2024-01-11T07:34:34;42.87;;;17.93;;
70303;SDS011;57712;48.752;11.348;2024-01-11T07:37:01;42.83;;;17.25;;
70303;SDS011;57712;48.752;11.348;2024-01-11T07:39:28;45.10;;;17.70;;
70303;SDS011;57712;48.752;11.348;2024-01-11T07:41:57;42.35;;;17.13;;
70303;SDS011;57712;48.752;11.348;2024-01-11T07:44:24;45.33;;;18.92;;
70303;SDS011;57712;48.752;11.348;2024-01-11T07:46:50;50.90;;;22.43;;
70303;SDS011;57712;48.752;11.348;2024-01-11T07:49:21;51.05;;;21.50;;
70303;SDS011;57712;48.752;11.348;2024-01-11T07:51:48;55.70;;;23.35;;
70303;SDS011;57712;48.752;11.348;2024-01-11T07:54:15;50.05;;;21.45;;
70303;SDS011;57712;48.752;11.348;2024-01-11T07:56:42;56.00;;;24.00;;
70303;SDS011;57712;48.752;11.348;2024-01-11T07:59:09;67.57;;;24.93;;
70303;SDS011;57712;48.752;11.348;2024-01-11T08:01:41;71.45;;;28.88;;
70303;SDS011;57712;48.752;11.348;2024-01-11T08:04:08;66.03;;;27.80;;
70303;SDS011;57712;48.752;11.348;2024-01-11T08:06:35;51.15;;;23.20;;
70303;SDS011;57712;48.752;11.348;2024-01-11T08:09:02;55.40;;;22.45;;
70303;SDS011;57712;48.752;11.348;2024-01-11T08:11:31;53.80;;;22.33;;
70303;SDS011;57712;48.752;11.348;2024-01-11T08:14:02;54.22;;;23.70;;
70303;SDS011;57712;48.752;11.348;2024-01-11T08:16:32;51.58;;;22.85;;
70303;SDS011;57712;48.752;11.348;2024-01-11T08:19:02;46.15;;;20.88;;
70303;SDS011;57712;48.752;11.348;2024-01-11T08:21:29;65.95;;;25.45;;
70303;SDS011;57712;48.752;11.348;2024-01-11T08:23:57;76.27;;;30.30;;
70303;SDS011;57712;48.752;11.348;2024-01-11T08:26:28;58.83;;;22.00;;
70303;SDS011;57712;48.752;11.348;2024-01-11T08:28:56;54.67;;;25.80;;
70303;SDS011;57712;48.752;11.348;2024-01-11T08:31:23;44.83;;;20.90;;
70303;SDS011;57712;48.752;11.348;2024-01-11T08:33:50;61.58;;;26.58;;
70303;SDS011;57712;48.752;11.348;2024-01-11T08:36:18;60.97;;;22.90;;
70303;SDS011;57712;48.752;11.348;2024-01-11T08:38:44;77.13;;;24.92;;
70303;SDS011;57712;48.752;11.348;2024-01-11T08:41:11;56.42;;;23.13;;
70303;SDS011;57712;48.752;11.348;2024-01-11T08:43:38;53.35;;;27.48;;
70303;SDS011;57712;48.752;11.348;2024-01-11T08:46:06;53.72;;;23.40;;
70303;SDS011;57712;48.752;11.348;2024-01-11T08:48:32;51.00;;;21.03;;
70303;SDS011;57712;48.752;11.348;2024-01-11T08:50:59;44.50;;;18.67;;
70303;SDS011;57712;48.752;11.348;2024-01-11T08:53:26;43.08;;;19.98;;
70303;SDS011;57712;48.752;11.348;2024-01-11T08:55:53;48.95;;;19.73;;
70303;SDS011;57712;48.752;11.348;2024-01-11T08:58:20;47.38;;;19.88;;
70303;SDS011;57712;48.752;11.348;2024-01-11T09:00:46;49.43;;;20.53;;
70303;SDS011;57712;48.752;11.348;2024-01-11T09:03:13;51.75;;;22.13;;
70303;SDS011;57712;48.752;11.348;2024-01-11T09:05:42;51.63;;;21.30;;
70303;SDS011;57712;48.752;11.348;2024-01-11T09:08:09;50.30;;;21.50;;
70303;SDS011;57712;48.752;11.348;2024-01-11T09:10:35;48.80;;;20.70;;
70303;SDS011;57712;48.752;11.348;2024-01-11T09:13:02;49.40;;;21.47;;
70303;SDS011;57712;48.752;11.348;2024-01-11T09:15:29;53.90;;;23.92;;
70303;SDS011;57712;48.752;11.348;2024-01-11T09:17:56;54.83;;;23.05;;
70303;SDS011;57712;48.752;11.348;2024-01-11T09:20:23;53.10;;;22.63;;
70303;SDS011;57712;48.752;11.348;2024-01-11T09:22:49;45.67;;;20.20;;
70303;SDS011;57712;48.752;11.348;2024-01-11T09:25:16;47.90;;;20.90;;
70303;SDS011;57712;48.752;11.348;2024-01-11T09:27:43;46.63;;;21.75;;
70303;SDS011;57712;48.752;11.348;2024-01-11T09:30:10;49.63;;;23.02;;
70303;SDS011;57712;48.752;11.348;2024-01-11T09:32:37;53.67;;;22.98;;
70303;SDS011;57712;48.752;11.348;2024-01-11T09:35:04;45.78;;;19.95;;
70303;SDS011;57712;48.752;11.348;2024-01-11T09:37:31;46.40;;;20.03;;
70303;SDS011;57712;48.752;11.348;2024-01-11T09:39:58;47.30;;;21.40;;
70303;SDS011;57712;48.752;11.348;2024-01-11T09:42:27;46.70;;;21.70;;
70303;SDS011;57712;48.752;11.348;2024-01-11T09:44:54;49.65;;;21.77;;
70303;SDS011;57712;48.752;11.348;2024-01-11T09:47:22;49.53;;;22.20;;
70303;SDS011;57712;48.752;11.348;2024-01-11T09:49:53;44.97;;;20.57;;
70303;SDS011;57712;48.752;11.348;2024-01-11T09:52:22;47.63;;;21.95;;
70303;SDS011;57712;48.752;11.348;2024-01-11T09:54:52;45.55;;;21.48;;
70303;SDS011;57712;48.752;11.348;2024-01-11T09:57:30;48.67;;;21.90;;
70303;SDS011;57712;48.752;11.348;2024-01-11T10:00:02;49.10;;;23.05;;
70303;SDS011;57712;48.752;11.348;2024-01-11T10:02:33;48.53;;;22.73;;
70303;SDS011;57712;48.752;11.348;2024-01-11T10:05:00;46.75;;;21.42;;
70303;SDS011;57712;48.752;11.348;2024-01-11T10:07:27;48.08;;;21.70;;
70303;SDS011;57712;48.752;11.348;2024-01-11T10:09:57;53.22;;;24.70;;
70303;SDS011;57712;48.752;11.348;2024-01-11T10:12:24;51.28;;;22.63;;
70303;SDS011;57712;48.752;11.348;2024-01-11T10:14:52;49.73;;;22.20;;
70303;SDS011;57712;48.752;11.348;2024-01-11T10:17:19;56.08;;;23.02;;
70303;SDS011;57712;48.752;11.348;2024-01-11T10:19:52;47.80;;;22.63;;
70303;SDS011;57712;48.752;11.348;2024-01-11T10:22:19;46.22;;;22.02;;
70303;SDS011;57712;48.752;11.348;2024-01-11T10:24:50;49.15;;;22.25;;
70303;SDS011;57712;48.752;11.348;2024-01-11T10:27:16;48.20;;;22.47;;
70303;SDS011;57712;48.752;11.348;2024-01-11T10:29:43;51.65;;;21.85;;
70303;SDS011;57712;48.752;11.348;2024-01-11T10:32:11;49.25;;;22.67;;
70303;SDS011;57712;48.752;11.348;2024-01-11T10:34:38;45.63;;;20.65;;
70303;SDS011;57712;48.752;11.348;2024-01-11T10:37:07;45.05;;;20.85;;
70303;SDS011;57712;48.752;11.348;2024-01-11T10:39:36;45.60;;;21.07;;
70303;SDS011;57712;48.752;11.348;2024-01-11T10:42:05;48.00;;;21.67;;
70303;SDS011;57712;48.752;11.348;2024-01-11T10:44:34;43.85;;;20.08;;
70303;SDS011;57712;48.752;11.348;2024-01-11T10:47:07;43.55;;;20.60;;
70303;SDS011;57712;48.752;11.348;2024-01-11T10:49:37;45.08;;;21.45;;
70303;SDS011;57712;48.752;11.348;2024-01-11T10:52:07;49.00;;;22.27;;
70303;SDS011;57712;48.752;11.348;2024-01-11T10:54:35;47.75;;;21.80;;
70303;SDS011;57712;48.752;11.348;2024-01-11T10:57:03;48.00;;;24.13;;
70303;SDS011;57712;48.752;11.348;2024-01-11T10:59:32;45.35;;;21.80;;
70303;SDS011;57712;48.752;11.348;2024-01-11T11:02:03;46.58;;;22.08;;
70303;SDS011;57712;48.752;11.348;2024-01-11T11:04:33;42.87;;;21.00;;
70303;SDS011;57712;48.752;11.348;2024-01-11T11:07:02;46.30;;;21.48;;
70303;SDS011;57712;48.752;11.348;2024-01-11T11:09:30;43.78;;;20.13;;
70303;SDS011;57712;48.752;11.348;2024-01-11T11:11:59;46.30;;;21.92;;
70303;SDS011;57712;48.752;11.348;2024-01-11T11:14:27;45.78;;;21.77;;
70303;SDS011;57712;48.752;11.348;2024-01-11T11:16:54;46.30;;;22.07;;
70303;SDS011;57712;48.752;11.348;2024-01-11T11:19:21;47.40;;;22.70;;
70303;SDS011;57712;48.752;11.348;2024-01-11T11:21:48;43.30;;;21.55;;
70303;SDS011;57712;48.752;11.348;2024-01-11T11:24:17;44.70;;;21.85;;
70303;SDS011;57712;48.752;11.348;2024-01-11T11:26:43;45.22;;;21.13;;
70303;SDS011;57712;48.752;11.348;2024-01-11T11:29:10;47.97;;;21.20;;
70303;SDS011;57712;48.752;11.348;2024-01-11T11:31:38;43.78;;;21.17;;
70303;SDS011;57712;48.752;11.348;2024-01-11T11:34:11;42.47;;;20.15;;
70303;SDS011;57712;48.752;11.348;2024-01-11T11:36:45;47.70;;;21.90;;
70303;SDS011;57712;48.752;11.348;2024-01-11T11:39:13;44.83;;;21.17;;
70303;SDS011;57712;48.752;11.348;2024-01-11T11:41:40;41.20;;;20.97;;
70303;SDS011;57712;48.752;11.348;2024-01-11T11:44:11;41.25;;;20.92;;
70303;SDS011;57712;48.752;11.348;2024-01-11T11:46:40;42.72;;;22.35;;
70303;SDS011;57712;48.752;11.348;2024-01-11T11:49:07;39.38;;;21.35;;
70303;SDS011;57712;48.752;11.348;2024-01-11T11:51:36;38.67;;;20.92;;
70303;SDS011;57712;48.752;11.348;2024-01-11T11:54:05;39.80;;;20.87;;
70303;SDS011;57712;48.752;11.348;2024-01-11T11:56:36;40.25;;;21.75;;
70303;SDS011;57712;48.752;11.348;2024-01-11T11:59:03;38.72;;;21.88;;
70303;SDS011;57712;48.752;11.348;2024-01-11T12:01:30;37.65;;;20.15;;
70303;SDS011;57712;48.752;11.348;2024-01-11T12:03:58;38.03;;;21.30;;
70303;SDS011;57712;48.752;11.348;2024-01-11T12:06:25;38.97;;;21.83;;
70303;SDS011;57712;48.752;11.348;2024-01-11T12:08:54;39.03;;;21.17;;
70303;SDS011;57712;48.752;11.348;2024-01-11T12:11:23;38.88;;;21.90;;
70303;SDS011;57712;48.752;11.348;2024-01-11T12:13:50;40.38;;;22.35;;
70303;SDS011;57712;48.752;11.348;2024-01-11T12:16:19;41.55;;;23.15;;
70303;SDS011;57712;48.752;11.348;2024-01-11T12:18:48;41.60;;;22.43;;
70303;SDS011;57712;48.752;11.348;2024-01-11T12:21:15;37.17;;;21.27;;
70303;SDS011;57712;48.752;11.348;2024-01-11T12:23:43;39.17;;;22.85;;
70303;SDS011;57712;48.752;11.348;2024-01-11T12:26:10;36.33;;;21.17;;
70303;SDS011;57712;48.752;11.348;2024-01-11T12:28:41;37.47;;;21.10;;
70303;SDS011;57712;48.752;11.348;2024-01-11T12:31:11;35.07;;;20.47;;
70303;SDS011;57712;48.752;11.348;2024-01-11T12:33:39;38.03;;;21.48;;
70303;SDS011;57712;48.752;11.348;2024-01-11T12:36:08;37.13;;;22.00;;
70303;SDS011;57712;48.752;11.348;2024-01-11T12:38:35;36.85;;;21.52;;
70303;SDS011;57712;48.752;11.348;2024-01-11T12:41:02;36.03;;;21.67;;
70303;SDS011;57712;48.752;11.348;2024-01-11T12:43:30;35.90;;;21.03;;
70303;SDS011;57712;48.752;11.348;2024-01-11T12:45:57;37.63;;;22.05;;
70303;SDS011;57712;48.752;11.348;2024-01-11T12:48:24;35.72;;;22.58;;
70303;SDS011;57712;48.752;11.348;2024-01-11T12:50:51;38.85;;;22.33;;
70303;SDS011;57712;48.752;11.348;2024-01-11T12:53:39;37.95;;;21.67;;
70303;SDS011;57712;48.752;11.348;2024-01-11T12:56:07;35.13;;;20.80;;
70303;SDS011;57712;48.752;11.348;2024-01-11T12:58:38;38.10;;;21.77;;
70303;SDS011;57712;48.752;11.348;2024-01-11T13:01:05;40.95;;;21.00;;
70303;SDS011;57712;48.752;11.348;2024-01-11T13:03:46;37.05;;;20.45;;
70303;SDS011;57712;48.752;11.348;2024-01-11T13:06:14;36.50;;;21.00;;
70303;SDS011;57712;48.752;11.348;2024-01-11T13:08:42;35.67;;;21.03;;
70303;SDS011;57712;48.752;11.348;2024-01-11T13:11:09;35.75;;;20.70;;
70303;SDS011;57712;48.752;11.348;2024-01-11T13:13:36;38.13;;;21.75;;
70303;SDS011;57712;48.752;11.348;2024-01-11T13:16:02;35.65;;;21.58;;
70303;SDS011;57712;48.752;11.348;2024-01-11T13:18:32;40.03;;;21.08;;
70303;SDS011;57712;48.752;11.348;2024-01-11T13:20:59;36.47;;;21.50;;
70303;SDS011;57712;48.752;11.348;2024-01-11T13:23:26;36.50;;;21.25;;
70303;SDS011;57712;48.752;11.348;2024-01-11T13:25:53;34.75;;;21.35;;
70303;SDS011;57712;48.752;11.348;2024-01-11T13:28:19;35.53;;;20.98;;
70303;SDS011;57712;48.752;11.348;2024-01-11T13:30:46;37.38;;;22.50;;
70303;SDS011;57712;48.752;11.348;2024-01-11T13:33:15;37.67;;;21.10;;
70303;SDS011;57712;48.752;11.348;2024-01-11T13:35:45;37.22;;;20.83;;
70303;SDS011;57712;48.752;11.348;2024-01-11T13:38:12;37.20;;;21.58;;
70303;SDS011;57712;48.752;11.348;2024-01-11T13:40:39;38.90;;;20.67;;
70303;SDS011;57712;48.752;11.348;2024-01-11T13:43:07;39.20;;;20.92;;
70303;SDS011;57712;48.752;11.348;2024-01-11T13:45:34;37.23;;;20.37;;
70303;SDS011;57712;48.752;11.348;2024-01-11T13:48:04;36.40;;;20.13;;
70303;SDS011;57712;48.752;11.348;2024-01-11T13:50:32;36.90;;;20.60;;
70303;SDS011;57712;48.752;11.348;2024-01-11T13:53:00;38.97;;;21.98;;
70303;SDS011;57712;48.752;11.348;2024-01-11T13:55:28;38.15;;;19.70;;
70303;SDS011;57712;48.752;11.348;2024-01-11T13:58:05;35.30;;;19.80;;
70303;SDS011;57712;48.752;11.348;2024-01-11T14:00:32;36.70;;;21.02;;
70303;SDS011;57712;48.752;11.348;2024-01-11T14:02:59;34.88;;;19.75;;
70303;SDS011;57712;48.752;11.348;2024-01-11T14:05:26;36.08;;;20.08;;
70303;SDS011;57712;48.752;11.348;2024-01-11T14:07:52;41.40;;;21.95;;
70303;SDS011;57712;48.752;11.348;2024-01-11T14:10:26;36.17;;;19.30;;